sensor_id;sensor_type;location;lat;lon;timestamp;P1;durP1;ratioP1;P2;durP2;ratioP2
75937;SDS011;64615;32.062;34.834;2023-08-20T00:00:15;7.88;;;4.90;;
75937;SDS011;64615;32.062;34.834;2023-08-20T00:02:42;7.50;;;4.60;;
75937;SDS011;64615;32.062;34.834;2023-08-20T00:05:08;7.53;;;4.53;;
75937;SDS011;64615;32.062;34.834;2023-08-20T00:07:35;6.85;;;4.40;;
75937;SDS011;64615;32.062;34.834;2023-08-20T00:10:01;7.72;;;5.13;;
75937;SDS011;64615;32.062;34.834;2023-08-20T00:12:29;7.20;;;4.57;;
75937;SDS011;64615;32.062;34.834;2023-08-20T00:14:56;6.80;;;4.00;;
75937;SDS011;64615;32.062;34.834;2023-08-20T00:19:58;6.53;;;4.30;;
75937;SDS011;64615;32.062;34.834;2023-08-20T00:22:24;9.50;;;5.15;;
75937;SDS011;64615;32.062;34.834;2023-08-20T00:24:51;7.40;;;4.28;;
75937;SDS011;64615;32.062;34.834;2023-08-20T00:27:18;6.55;;;4.38;;
75937;SDS011;64615;32.062;34.834;2023-08-20T00:29:44;6.97;;;4.78;;
75937;SDS011;64615;32.062;34.834;2023-08-20T00:32:10;7.25;;;4.50;;
75937;SDS011;64615;32.062;34.834;2023-08-20T00:34:36;8.23;;;4.40;;
75937;SDS011;64615;32.062;34.834;2023-08-20T00:37:01;7.38;;;4.57;;
75937;SDS011;64615;32.062;34.834;2023-08-20T00:39:28;6.82;;;4.90;;
75937;SDS011;64615;32.062;34.834;2023-08-20T00:41:56;7.47;;;4.50;;
75937;SDS011;64615;32.062;34.834;2023-08-20T00:44:23;6.07;;;4.25;;
75937;SDS011;64615;32.062;34.834;2023-08-20T00:46:49;7.53;;;4.30;;
75937;SDS011;64615;32.062;34.834;2023-08-20T00:49:15;7.47;;;4.70;;
75937;SDS011;64615;32.062;34.834;2023-08-20T00:51:42;6.13;;;4.18;;
75937;SDS011;64615;32.062;34.834;2023-08-20T00:54:08;7.30;;;4.05;;
75937;SDS011;64615;32.062;34.834;2023-08-20T00:56:35;8.05;;;4.70;;
75937;SDS011;64615;32.062;34.834;2023-08-20T00:59:00;8.98;;;3.97;;
75937;SDS011;64615;32.062;34.834;2023-08-20T01:01:26;7.03;;;4.32;;
75937;SDS011;64615;32.062;34.834;2023-08-20T01:03:51;7.05;;;4.40;;
75937;SDS011;64615;32.062;34.834;2023-08-20T01:06:21;7.38;;;4.82;;
75937;SDS011;64615;32.062;34.834;2023-08-20T01:09:01;7.22;;;4.25;;
75937;SDS011;64615;32.062;34.834;2023-08-20T01:11:37;7.57;;;4.80;;
75937;SDS011;64615;32.062;34.834;2023-08-20T01:14:16;7.50;;;4.22;;
75937;SDS011;64615;32.062;34.834;2023-08-20T01:16:42;5.72;;;4.20;;
75937;SDS011;64615;32.062;34.834;2023-08-20T01:19:10;7.57;;;4.22;;
75937;SDS011;64615;32.062;34.834;2023-08-20T01:21:46;7.45;;;4.80;;
75937;SDS011;64615;32.062;34.834;2023-08-20T01:27:26;7.88;;;4.40;;
75937;SDS011;64615;32.062;34.834;2023-08-20T01:30:06;6.40;;;4.10;;
75937;SDS011;64615;32.062;34.834;2023-08-20T01:32:33;6.97;;;4.70;;
75937;SDS011;64615;32.062;34.834;2023-08-20T01:35:00;6.85;;;4.40;;
75937;SDS011;64615;32.062;34.834;2023-08-20T01:37:26;7.10;;;4.40;;
75937;SDS011;64615;32.062;34.834;2023-08-20T01:39:51;10.15;;;4.75;;
75937;SDS011;64615;32.062;34.834;2023-08-20T01:42:17;8.18;;;4.97;;
75937;SDS011;64615;32.062;34.834;2023-08-20T01:44:43;8.57;;;4.32;;
75937;SDS011;64615;32.062;34.834;2023-08-20T01:47:09;8.75;;;4.60;;
75937;SDS011;64615;32.062;34.834;2023-08-20T01:49:34;7.00;;;4.15;;
75937;SDS011;64615;32.062;34.834;2023-08-20T01:52:00;6.32;;;4.30;;
75937;SDS011;64615;32.062;34.834;2023-08-20T01:54:26;7.50;;;4.40;;
75937;SDS011;64615;32.062;34.834;2023-08-20T01:56:51;7.03;;;4.40;;
75937;SDS011;64615;32.062;34.834;2023-08-20T01:59:17;6.43;;;4.05;;
75937;SDS011;64615;32.062;34.834;2023-08-20T02:01:43;7.60;;;4.00;;
75937;SDS011;64615;32.062;34.834;2023-08-20T02:04:09;6.35;;;4.32;;
75937;SDS011;64615;32.062;34.834;2023-08-20T02:06:34;6.80;;;4.28;;
75937;SDS011;64615;32.062;34.834;2023-08-20T02:09:00;6.38;;;4.32;;
75937;SDS011;64615;32.062;34.834;2023-08-20T02:11:26;6.78;;;4.53;;
75937;SDS011;64615;32.062;34.834;2023-08-20T02:13:51;6.43;;;3.90;;
75937;SDS011;64615;32.062;34.834;2023-08-20T02:16:17;6.32;;;4.20;;
75937;SDS011;64615;32.062;34.834;2023-08-20T02:18:43;6.10;;;4.10;;
75937;SDS011;64615;32.062;34.834;2023-08-20T02:21:08;8.75;;;4.22;;
75937;SDS011;64615;32.062;34.834;2023-08-20T02:23:34;7.90;;;4.72;;
75937;SDS011;64615;32.062;34.834;2023-08-20T02:25:59;8.65;;;4.07;;
75937;SDS011;64615;32.062;34.834;2023-08-20T02:28:26;6.22;;;4.28;;
75937;SDS011;64615;32.062;34.834;2023-08-20T02:30:51;6.90;;;4.38;;
75937;SDS011;64615;32.062;34.834;2023-08-20T02:33:17;7.20;;;4.20;;
75937;SDS011;64615;32.062;34.834;2023-08-20T02:35:43;7.10;;;4.15;;
75937;SDS011;64615;32.062;34.834;2023-08-20T02:38:08;6.38;;;4.20;;
75937;SDS011;64615;32.062;34.834;2023-08-20T02:40:38;6.60;;;4.18;;
75937;SDS011;64615;32.062;34.834;2023-08-20T02:43:05;7.38;;;4.20;;
75937;SDS011;64615;32.062;34.834;2023-08-20T02:45:30;6.40;;;4.00;;
75937;SDS011;64615;32.062;34.834;2023-08-20T02:47:57;8.25;;;3.97;;
75937;SDS011;64615;32.062;34.834;2023-08-20T02:50:22;6.30;;;4.10;;
75937;SDS011;64615;32.062;34.834;2023-08-20T02:52:48;7.82;;;4.70;;
75937;SDS011;64615;32.062;34.834;2023-08-20T02:55:13;6.63;;;4.10;;
75937;SDS011;64615;32.062;34.834;2023-08-20T02:57:39;7.18;;;4.18;;
75937;SDS011;64615;32.062;34.834;2023-08-20T03:00:05;7.22;;;4.20;;
75937;SDS011;64615;32.062;34.834;2023-08-20T03:02:35;6.97;;;4.00;;
75937;SDS011;64615;32.062;34.834;2023-08-20T03:05:00;7.18;;;4.15;;
75937;SDS011;64615;32.062;34.834;2023-08-20T03:07:26;7.78;;;4.35;;
75937;SDS011;64615;32.062;34.834;2023-08-20T03:09:51;6.22;;;4.20;;
75937;SDS011;64615;32.062;34.834;2023-08-20T03:12:17;6.28;;;4.18;;
75937;SDS011;64615;32.062;34.834;2023-08-20T03:14:42;7.00;;;4.20;;
75937;SDS011;64615;32.062;34.834;2023-08-20T03:17:08;6.25;;;4.22;;
75937;SDS011;64615;32.062;34.834;2023-08-20T03:19:34;7.85;;;4.05;;
75937;SDS011;64615;32.062;34.834;2023-08-20T03:22:02;5.55;;;3.75;;
75937;SDS011;64615;32.062;34.834;2023-08-20T03:24:28;7.70;;;4.05;;
75937;SDS011;64615;32.062;34.834;2023-08-20T03:26:53;6.35;;;4.10;;
75937;SDS011;64615;32.062;34.834;2023-08-20T03:29:19;6.78;;;4.05;;
75937;SDS011;64615;32.062;34.834;2023-08-20T03:31:44;7.00;;;4.40;;
75937;SDS011;64615;32.062;34.834;2023-08-20T03:34:10;8.52;;;4.50;;
75937;SDS011;64615;32.062;34.834;2023-08-20T03:36:36;6.45;;;3.92;;
75937;SDS011;64615;32.062;34.834;2023-08-20T03:39:02;6.30;;;4.03;;
75937;SDS011;64615;32.062;34.834;2023-08-20T03:41:28;7.63;;;4.20;;
75937;SDS011;64615;32.062;34.834;2023-08-20T03:43:54;6.90;;;4.35;;
75937;SDS011;64615;32.062;34.834;2023-08-20T03:46:20;6.90;;;4.38;;
75937;SDS011;64615;32.062;34.834;2023-08-20T03:48:45;7.18;;;4.15;;
75937;SDS011;64615;32.062;34.834;2023-08-20T03:51:11;6.75;;;4.07;;
75937;SDS011;64615;32.062;34.834;2023-08-20T03:53:36;9.00;;;4.32;;
75937;SDS011;64615;32.062;34.834;2023-08-20T03:56:02;7.78;;;4.13;;
75937;SDS011;64615;32.062;34.834;2023-08-20T03:58:28;6.55;;;4.40;;
75937;SDS011;64615;32.062;34.834;2023-08-20T04:00:53;6.78;;;4.10;;
75937;SDS011;64615;32.062;34.834;2023-08-20T04:03:19;8.30;;;4.57;;
75937;SDS011;64615;32.062;34.834;2023-08-20T04:05:45;7.93;;;4.70;;
75937;SDS011;64615;32.062;34.834;2023-08-20T04:08:10;11.65;;;4.72;;
75937;SDS011;64615;32.062;34.834;2023-08-20T04:10:41;13.55;;;5.70;;
75937;SDS011;64615;32.062;34.834;2023-08-20T04:13:09;12.60;;;4.68;;
75937;SDS011;64615;32.062;34.834;2023-08-20T04:15:35;8.50;;;5.18;;
75937;SDS011;64615;32.062;34.834;2023-08-20T04:18:00;8.38;;;4.93;;
75937;SDS011;64615;32.062;34.834;2023-08-20T04:20:26;9.20;;;4.75;;
75937;SDS011;64615;32.062;34.834;2023-08-20T04:22:52;7.25;;;4.60;;
75937;SDS011;64615;32.062;34.834;2023-08-20T04:25:17;10.77;;;4.80;;
75937;SDS011;64615;32.062;34.834;2023-08-20T04:27:43;7.55;;;4.53;;
75937;SDS011;64615;32.062;34.834;2023-08-20T04:30:09;7.90;;;4.75;;
75937;SDS011;64615;32.062;34.834;2023-08-20T04:32:35;7.80;;;4.57;;
75937;SDS011;64615;32.062;34.834;2023-08-20T04:35:00;9.98;;;4.85;;
75937;SDS011;64615;32.062;34.834;2023-08-20T04:37:26;10.30;;;4.50;;
75937;SDS011;64615;32.062;34.834;2023-08-20T04:39:52;7.00;;;4.32;;
75937;SDS011;64615;32.062;34.834;2023-08-20T04:42:17;7.68;;;4.32;;
75937;SDS011;64615;32.062;34.834;2023-08-20T04:44:43;10.32;;;5.22;;
75937;SDS011;64615;32.062;34.834;2023-08-20T04:47:12;8.80;;;4.75;;
75937;SDS011;64615;32.062;34.834;2023-08-20T04:49:40;7.90;;;4.38;;
75937;SDS011;64615;32.062;34.834;2023-08-20T04:52:06;8.85;;;4.95;;
75937;SDS011;64615;32.062;34.834;2023-08-20T04:54:32;8.55;;;4.63;;
75937;SDS011;64615;32.062;34.834;2023-08-20T04:56:57;8.98;;;5.07;;
75937;SDS011;64615;32.062;34.834;2023-08-20T04:59:23;9.57;;;4.53;;
75937;SDS011;64615;32.062;34.834;2023-08-20T05:01:48;8.52;;;4.88;;
75937;SDS011;64615;32.062;34.834;2023-08-20T05:04:14;7.60;;;5.03;;
75937;SDS011;64615;32.062;34.834;2023-08-20T05:06:40;8.93;;;4.97;;
75937;SDS011;64615;32.062;34.834;2023-08-20T05:09:05;9.40;;;4.85;;
75937;SDS011;64615;32.062;34.834;2023-08-20T05:11:31;9.48;;;5.20;;
75937;SDS011;64615;32.062;34.834;2023-08-20T05:13:58;9.48;;;5.10;;
75937;SDS011;64615;32.062;34.834;2023-08-20T05:16:23;7.70;;;4.60;;
75937;SDS011;64615;32.062;34.834;2023-08-20T05:18:49;10.00;;;5.28;;
75937;SDS011;64615;32.062;34.834;2023-08-20T05:21:15;10.70;;;5.38;;
75937;SDS011;64615;32.062;34.834;2023-08-20T05:23:40;7.45;;;5.07;;
75937;SDS011;64615;32.062;34.834;2023-08-20T05:26:06;8.75;;;5.10;;
75937;SDS011;64615;32.062;34.834;2023-08-20T05:28:32;8.75;;;5.10;;
75937;SDS011;64615;32.062;34.834;2023-08-20T05:30:58;7.65;;;5.05;;
75937;SDS011;64615;32.062;34.834;2023-08-20T05:33:24;8.45;;;4.88;;
75937;SDS011;64615;32.062;34.834;2023-08-20T05:35:51;9.25;;;5.72;;
75937;SDS011;64615;32.062;34.834;2023-08-20T05:38:16;9.85;;;5.13;;
75937;SDS011;64615;32.062;34.834;2023-08-20T05:40:42;10.38;;;5.43;;
75937;SDS011;64615;32.062;34.834;2023-08-20T05:43:08;10.48;;;6.00;;
75937;SDS011;64615;32.062;34.834;2023-08-20T05:45:33;9.65;;;4.85;;
75937;SDS011;64615;32.062;34.834;2023-08-20T05:47:59;9.70;;;4.97;;
75937;SDS011;64615;32.062;34.834;2023-08-20T05:50:25;8.80;;;4.97;;
75937;SDS011;64615;32.062;34.834;2023-08-20T05:52:51;8.43;;;5.25;;
75937;SDS011;64615;32.062;34.834;2023-08-20T05:55:17;8.02;;;5.65;;
75937;SDS011;64615;32.062;34.834;2023-08-20T05:57:43;7.80;;;5.47;;
75937;SDS011;64615;32.062;34.834;2023-08-20T06:00:09;8.32;;;5.03;;
75937;SDS011;64615;32.062;34.834;2023-08-20T06:02:36;8.35;;;5.40;;
75937;SDS011;64615;32.062;34.834;2023-08-20T06:05:02;8.57;;;5.07;;
75937;SDS011;64615;32.062;34.834;2023-08-20T06:07:31;8.50;;;4.55;;
75937;SDS011;64615;32.062;34.834;2023-08-20T06:09:57;8.43;;;4.80;;
75937;SDS011;64615;32.062;34.834;2023-08-20T06:12:23;10.63;;;5.15;;
75937;SDS011;64615;32.062;34.834;2023-08-20T06:14:49;11.50;;;5.20;;
75937;SDS011;64615;32.062;34.834;2023-08-20T06:17:15;11.68;;;5.50;;
75937;SDS011;64615;32.062;34.834;2023-08-20T06:19:40;8.48;;;5.00;;
75937;SDS011;64615;32.062;34.834;2023-08-20T06:22:06;9.23;;;5.28;;
75937;SDS011;64615;32.062;34.834;2023-08-20T06:24:32;8.52;;;4.75;;
75937;SDS011;64615;32.062;34.834;2023-08-20T06:26:58;8.73;;;4.82;;
75937;SDS011;64615;32.062;34.834;2023-08-20T06:29:23;9.50;;;4.93;;
75937;SDS011;64615;32.062;34.834;2023-08-20T06:31:49;7.35;;;4.75;;
75937;SDS011;64615;32.062;34.834;2023-08-20T06:34:16;8.50;;;5.07;;
75937;SDS011;64615;32.062;34.834;2023-08-20T06:36:41;7.97;;;5.05;;
75937;SDS011;64615;32.062;34.834;2023-08-20T06:39:07;8.65;;;4.70;;
75937;SDS011;64615;32.062;34.834;2023-08-20T06:41:33;7.53;;;4.68;;
75937;SDS011;64615;32.062;34.834;2023-08-20T06:44:00;10.15;;;5.13;;
75937;SDS011;64615;32.062;34.834;2023-08-20T06:46:26;7.93;;;4.80;;
75937;SDS011;64615;32.062;34.834;2023-08-20T06:48:52;6.78;;;4.30;;
75937;SDS011;64615;32.062;34.834;2023-08-20T06:51:21;8.60;;;5.30;;
75937;SDS011;64615;32.062;34.834;2023-08-20T06:53:47;7.28;;;4.57;;
75937;SDS011;64615;32.062;34.834;2023-08-20T06:56:13;7.90;;;4.80;;
75937;SDS011;64615;32.062;34.834;2023-08-20T06:58:39;7.90;;;4.65;;
75937;SDS011;64615;32.062;34.834;2023-08-20T07:01:06;8.25;;;5.18;;
75937;SDS011;64615;32.062;34.834;2023-08-20T07:03:42;9.40;;;4.85;;
75937;SDS011;64615;32.062;34.834;2023-08-20T07:06:09;6.05;;;4.60;;
75937;SDS011;64615;32.062;34.834;2023-08-20T07:08:36;7.22;;;4.80;;
75937;SDS011;64615;32.062;34.834;2023-08-20T07:11:04;8.10;;;4.55;;
75937;SDS011;64615;32.062;34.834;2023-08-20T07:13:30;9.25;;;4.38;;
75937;SDS011;64615;32.062;34.834;2023-08-20T07:15:55;9.00;;;4.75;;
75937;SDS011;64615;32.062;34.834;2023-08-20T07:18:21;7.13;;;4.68;;
75937;SDS011;64615;32.062;34.834;2023-08-20T07:20:47;9.32;;;4.72;;
75937;SDS011;64615;32.062;34.834;2023-08-20T07:23:12;7.63;;;4.93;;
75937;SDS011;64615;32.062;34.834;2023-08-20T07:25:39;7.55;;;4.63;;
75937;SDS011;64615;32.062;34.834;2023-08-20T07:28:06;10.88;;;4.85;;
75937;SDS011;64615;32.062;34.834;2023-08-20T07:30:33;9.15;;;5.07;;
75937;SDS011;64615;32.062;34.834;2023-08-20T07:32:59;7.57;;;4.35;;
75937;SDS011;64615;32.062;34.834;2023-08-20T07:35:25;11.13;;;4.72;;
75937;SDS011;64615;32.062;34.834;2023-08-20T07:37:51;6.97;;;4.50;;
75937;SDS011;64615;32.062;34.834;2023-08-20T07:40:17;7.13;;;4.82;;
75937;SDS011;64615;32.062;34.834;2023-08-20T07:42:43;8.15;;;4.80;;
75937;SDS011;64615;32.062;34.834;2023-08-20T07:45:09;8.10;;;4.65;;
75937;SDS011;64615;32.062;34.834;2023-08-20T07:47:35;7.95;;;4.65;;
75937;SDS011;64615;32.062;34.834;2023-08-20T07:50:02;7.75;;;4.90;;
75937;SDS011;64615;32.062;34.834;2023-08-20T07:52:28;8.25;;;4.18;;
75937;SDS011;64615;32.062;34.834;2023-08-20T07:54:54;9.82;;;4.43;;
75937;SDS011;64615;32.062;34.834;2023-08-20T07:57:19;7.30;;;4.45;;
75937;SDS011;64615;32.062;34.834;2023-08-20T07:59:45;8.45;;;4.70;;
75937;SDS011;64615;32.062;34.834;2023-08-20T08:02:11;8.77;;;4.85;;
75937;SDS011;64615;32.062;34.834;2023-08-20T08:04:37;8.48;;;4.65;;
75937;SDS011;64615;32.062;34.834;2023-08-20T08:07:02;7.68;;;4.47;;
75937;SDS011;64615;32.062;34.834;2023-08-20T08:09:31;8.20;;;4.85;;
75937;SDS011;64615;32.062;34.834;2023-08-20T08:11:57;7.20;;;4.90;;
75937;SDS011;64615;32.062;34.834;2023-08-20T08:14:24;10.50;;;4.88;;
75937;SDS011;64615;32.062;34.834;2023-08-20T08:16:51;10.07;;;4.88;;
75937;SDS011;64615;32.062;34.834;2023-08-20T08:19:17;8.65;;;4.80;;
75937;SDS011;64615;32.062;34.834;2023-08-20T08:21:44;9.45;;;4.78;;
75937;SDS011;64615;32.062;34.834;2023-08-20T08:24:11;11.90;;;5.00;;
75937;SDS011;64615;32.062;34.834;2023-08-20T08:26:38;8.80;;;4.85;;
75937;SDS011;64615;32.062;34.834;2023-08-20T08:29:05;7.63;;;4.93;;
75937;SDS011;64615;32.062;34.834;2023-08-20T08:31:31;8.73;;;5.15;;
75937;SDS011;64615;32.062;34.834;2023-08-20T08:33:57;8.65;;;4.82;;
75937;SDS011;64615;32.062;34.834;2023-08-20T08:36:23;10.38;;;4.97;;
75937;SDS011;64615;32.062;34.834;2023-08-20T08:38:50;7.35;;;4.32;;
75937;SDS011;64615;32.062;34.834;2023-08-20T08:41:16;9.30;;;4.78;;
75937;SDS011;64615;32.062;34.834;2023-08-20T08:43:42;8.10;;;5.30;;
75937;SDS011;64615;32.062;34.834;2023-08-20T08:46:14;8.68;;;5.20;;
75937;SDS011;64615;32.062;34.834;2023-08-20T08:48:40;10.02;;;5.00;;
75937;SDS011;64615;32.062;34.834;2023-08-20T08:51:07;10.30;;;4.65;;
75937;SDS011;64615;32.062;34.834;2023-08-20T08:53:33;8.35;;;4.72;;
75937;SDS011;64615;32.062;34.834;2023-08-20T08:55:59;8.70;;;4.75;;
75937;SDS011;64615;32.062;34.834;2023-08-20T08:58:25;9.60;;;5.32;;
75937;SDS011;64615;32.062;34.834;2023-08-20T09:00:51;7.47;;;4.60;;
75937;SDS011;64615;32.062;34.834;2023-08-20T09:03:16;8.32;;;5.10;;
75937;SDS011;64615;32.062;34.834;2023-08-20T09:05:46;8.55;;;5.28;;
75937;SDS011;64615;32.062;34.834;2023-08-20T09:08:22;9.57;;;5.22;;
75937;SDS011;64615;32.062;34.834;2023-08-20T09:10:51;10.13;;;5.18;;
75937;SDS011;64615;32.062;34.834;2023-08-20T09:13:18;9.40;;;5.35;;
75937;SDS011;64615;32.062;34.834;2023-08-20T09:15:50;6.82;;;4.60;;
75937;SDS011;64615;32.062;34.834;2023-08-20T09:18:17;9.70;;;5.05;;
75937;SDS011;64615;32.062;34.834;2023-08-20T09:20:42;8.88;;;4.72;;
75937;SDS011;64615;32.062;34.834;2023-08-20T09:23:11;9.43;;;5.25;;
75937;SDS011;64615;32.062;34.834;2023-08-20T09:25:40;9.10;;;5.03;;
75937;SDS011;64615;32.062;34.834;2023-08-20T09:28:07;8.75;;;5.07;;
75937;SDS011;64615;32.062;34.834;2023-08-20T09:30:32;9.10;;;5.00;;
75937;SDS011;64615;32.062;34.834;2023-08-20T09:33:11;9.93;;;5.50;;
75937;SDS011;64615;32.062;34.834;2023-08-20T09:35:46;8.50;;;5.10;;
75937;SDS011;64615;32.062;34.834;2023-08-20T09:38:14;10.65;;;5.13;;
75937;SDS011;64615;32.062;34.834;2023-08-20T09:40:39;8.80;;;5.32;;
75937;SDS011;64615;32.062;34.834;2023-08-20T09:43:05;7.75;;;5.03;;
75937;SDS011;64615;32.062;34.834;2023-08-20T09:45:33;9.23;;;5.45;;
75937;SDS011;64615;32.062;34.834;2023-08-20T09:48:01;8.75;;;5.50;;
75937;SDS011;64615;32.062;34.834;2023-08-20T09:50:34;8.57;;;5.07;;
75937;SDS011;64615;32.062;34.834;2023-08-20T09:56:49;9.07;;;5.18;;
75937;SDS011;64615;32.062;34.834;2023-08-20T09:58:54;8.98;;;4.90;;
75937;SDS011;64615;32.062;34.834;2023-08-20T10:03:48;8.40;;;4.93;;
75937;SDS011;64615;32.062;34.834;2023-08-20T10:06:14;9.13;;;4.97;;
75937;SDS011;64615;32.062;34.834;2023-08-20T10:08:40;9.60;;;5.57;;
75937;SDS011;64615;32.062;34.834;2023-08-20T10:11:06;9.32;;;5.13;;
75937;SDS011;64615;32.062;34.834;2023-08-20T10:13:32;7.85;;;4.90;;
75937;SDS011;64615;32.062;34.834;2023-08-20T10:15:58;9.52;;;5.43;;
75937;SDS011;64615;32.062;34.834;2023-08-20T10:18:24;9.73;;;5.57;;
75937;SDS011;64615;32.062;34.834;2023-08-20T10:20:52;7.95;;;5.13;;
75937;SDS011;64615;32.062;34.834;2023-08-20T10:23:21;8.27;;;4.80;;
75937;SDS011;64615;32.062;34.834;2023-08-20T10:25:51;8.57;;;5.10;;
75937;SDS011;64615;32.062;34.834;2023-08-20T10:28:21;12.13;;;5.35;;
75937;SDS011;64615;32.062;34.834;2023-08-20T10:36:08;8.25;;;5.22;;
75937;SDS011;64615;32.062;34.834;2023-08-20T10:38:37;11.75;;;4.95;;
75937;SDS011;64615;32.062;34.834;2023-08-20T10:41:07;8.07;;;5.35;;
75937;SDS011;64615;32.062;34.834;2023-08-20T10:43:35;7.38;;;5.28;;
75937;SDS011;64615;32.062;34.834;2023-08-20T10:46:18;7.72;;;5.20;;
75937;SDS011;64615;32.062;34.834;2023-08-20T10:48:49;9.45;;;5.05;;
75937;SDS011;64615;32.062;34.834;2023-08-20T10:51:29;9.30;;;5.15;;
75937;SDS011;64615;32.062;34.834;2023-08-20T10:56:45;12.15;;;5.43;;
75937;SDS011;64615;32.062;34.834;2023-08-20T11:01:39;7.57;;;5.05;;
75937;SDS011;64615;32.062;34.834;2023-08-20T11:04:08;8.55;;;5.20;;
75937;SDS011;64615;32.062;34.834;2023-08-20T11:06:34;10.23;;;4.95;;
75937;SDS011;64615;32.062;34.834;2023-08-20T11:09:00;10.32;;;5.07;;
75937;SDS011;64615;32.062;34.834;2023-08-20T11:11:28;12.00;;;5.25;;
75937;SDS011;64615;32.062;34.834;2023-08-20T11:13:54;7.40;;;4.95;;
75937;SDS011;64615;32.062;34.834;2023-08-20T11:16:19;8.48;;;5.38;;
75937;SDS011;64615;32.062;34.834;2023-08-20T11:18:45;12.85;;;5.38;;
75937;SDS011;64615;32.062;34.834;2023-08-20T11:21:11;8.88;;;4.90;;
75937;SDS011;64615;32.062;34.834;2023-08-20T11:23:38;7.03;;;4.60;;
75937;SDS011;64615;32.062;34.834;2023-08-20T11:26:07;8.85;;;5.43;;
75937;SDS011;64615;32.062;34.834;2023-08-20T11:28:33;8.02;;;4.95;;
75937;SDS011;64615;32.062;34.834;2023-08-20T11:30:58;8.48;;;4.80;;
75937;SDS011;64615;32.062;34.834;2023-08-20T11:35:52;8.13;;;4.90;;
75937;SDS011;64615;32.062;34.834;2023-08-20T11:38:19;9.68;;;4.60;;
75937;SDS011;64615;32.062;34.834;2023-08-20T11:40:46;7.35;;;4.97;;
75937;SDS011;64615;32.062;34.834;2023-08-20T11:43:12;8.20;;;4.75;;
75937;SDS011;64615;32.062;34.834;2023-08-20T11:45:44;10.50;;;5.18;;
75937;SDS011;64615;32.062;34.834;2023-08-20T11:48:12;9.02;;;5.07;;
75937;SDS011;64615;32.062;34.834;2023-08-20T11:50:38;7.25;;;4.93;;
75937;SDS011;64615;32.062;34.834;2023-08-20T11:53:04;9.07;;;4.55;;
75937;SDS011;64615;32.062;34.834;2023-08-20T11:55:29;8.70;;;5.53;;
75937;SDS011;64615;32.062;34.834;2023-08-20T11:57:55;7.20;;;4.55;;
75937;SDS011;64615;32.062;34.834;2023-08-20T12:00:24;9.20;;;4.65;;
75937;SDS011;64615;32.062;34.834;2023-08-20T12:02:54;8.88;;;5.10;;
75937;SDS011;64615;32.062;34.834;2023-08-20T12:05:21;8.45;;;4.75;;
75937;SDS011;64615;32.062;34.834;2023-08-20T12:07:54;8.10;;;4.72;;
75937;SDS011;64615;32.062;34.834;2023-08-20T12:10:24;8.18;;;4.88;;
75937;SDS011;64615;32.062;34.834;2023-08-20T12:12:51;9.52;;;4.93;;
75937;SDS011;64615;32.062;34.834;2023-08-20T12:15:17;7.95;;;4.88;;
75937;SDS011;64615;32.062;34.834;2023-08-20T12:17:55;10.25;;;5.10;;
75937;SDS011;64615;32.062;34.834;2023-08-20T12:20:31;9.07;;;4.97;;
75937;SDS011;64615;32.062;34.834;2023-08-20T12:22:59;8.80;;;4.95;;
75937;SDS011;64615;32.062;34.834;2023-08-20T12:25:26;9.75;;;5.03;;
75937;SDS011;64615;32.062;34.834;2023-08-20T12:27:54;8.38;;;4.72;;
75937;SDS011;64615;32.062;34.834;2023-08-20T12:30:21;8.48;;;5.50;;
75937;SDS011;64615;32.062;34.834;2023-08-20T12:32:47;12.07;;;5.10;;
75937;SDS011;64615;32.062;34.834;2023-08-20T12:35:12;9.20;;;5.18;;
75937;SDS011;64615;32.062;34.834;2023-08-20T12:37:38;8.35;;;5.03;;
75937;SDS011;64615;32.062;34.834;2023-08-20T12:40:04;9.80;;;5.05;;
75937;SDS011;64615;32.062;34.834;2023-08-20T12:42:34;9.43;;;5.05;;
75937;SDS011;64615;32.062;34.834;2023-08-20T12:44:59;8.98;;;4.95;;
75937;SDS011;64615;32.062;34.834;2023-08-20T12:47:25;8.18;;;4.75;;
75937;SDS011;64615;32.062;34.834;2023-08-20T12:49:50;8.85;;;5.18;;
75937;SDS011;64615;32.062;34.834;2023-08-20T12:52:16;8.07;;;5.13;;
75937;SDS011;64615;32.062;34.834;2023-08-20T12:54:42;8.35;;;4.97;;
75937;SDS011;64615;32.062;34.834;2023-08-20T12:57:07;12.07;;;5.22;;
75937;SDS011;64615;32.062;34.834;2023-08-20T12:59:33;10.00;;;5.40;;
75937;SDS011;64615;32.062;34.834;2023-08-20T13:01:58;10.68;;;4.88;;
75937;SDS011;64615;32.062;34.834;2023-08-20T13:04:24;8.45;;;5.30;;
75937;SDS011;64615;32.062;34.834;2023-08-20T13:06:50;8.82;;;5.55;;
75937;SDS011;64615;32.062;34.834;2023-08-20T13:09:16;8.48;;;5.10;;
75937;SDS011;64615;32.062;34.834;2023-08-20T13:11:42;10.32;;;5.47;;
75937;SDS011;64615;32.062;34.834;2023-08-20T13:14:09;8.85;;;5.28;;
75937;SDS011;64615;32.062;34.834;2023-08-20T13:16:35;9.75;;;5.57;;
75937;SDS011;64615;32.062;34.834;2023-08-20T13:19:01;9.30;;;5.38;;
75937;SDS011;64615;32.062;34.834;2023-08-20T13:21:27;8.55;;;5.53;;
75937;SDS011;64615;32.062;34.834;2023-08-20T13:23:53;8.68;;;5.10;;
75937;SDS011;64615;32.062;34.834;2023-08-20T13:26:19;12.38;;;5.90;;
75937;SDS011;64615;32.062;34.834;2023-08-20T13:28:47;9.88;;;5.40;;
75937;SDS011;64615;32.062;34.834;2023-08-20T13:31:13;10.07;;;5.63;;
75937;SDS011;64615;32.062;34.834;2023-08-20T13:33:39;9.50;;;5.35;;
75937;SDS011;64615;32.062;34.834;2023-08-20T13:36:05;9.30;;;5.43;;
75937;SDS011;64615;32.062;34.834;2023-08-20T13:38:32;8.35;;;5.28;;
75937;SDS011;64615;32.062;34.834;2023-08-20T13:40:58;9.55;;;5.28;;
75937;SDS011;64615;32.062;34.834;2023-08-20T13:43:23;10.80;;;5.80;;
75937;SDS011;64615;32.062;34.834;2023-08-20T13:45:49;9.25;;;5.50;;
75937;SDS011;64615;32.062;34.834;2023-08-20T13:48:15;11.70;;;5.32;;
75937;SDS011;64615;32.062;34.834;2023-08-20T13:50:40;11.45;;;5.20;;
75937;SDS011;64615;32.062;34.834;2023-08-20T13:53:06;9.38;;;5.43;;
75937;SDS011;64615;32.062;34.834;2023-08-20T13:55:31;8.23;;;5.38;;
75937;SDS011;64615;32.062;34.834;2023-08-20T13:57:57;9.00;;;5.40;;
75937;SDS011;64615;32.062;34.834;2023-08-20T14:00:23;7.72;;;5.32;;
75937;SDS011;64615;32.062;34.834;2023-08-20T14:02:48;10.05;;;5.45;;
75937;SDS011;64615;32.062;34.834;2023-08-20T14:05:14;10.07;;;5.22;;
75937;SDS011;64615;32.062;34.834;2023-08-20T14:07:40;9.50;;;5.40;;
75937;SDS011;64615;32.062;34.834;2023-08-20T14:10:07;10.10;;;5.60;;
75937;SDS011;64615;32.062;34.834;2023-08-20T14:12:33;8.77;;;5.25;;
75937;SDS011;64615;32.062;34.834;2023-08-20T14:14:59;10.40;;;5.68;;
75937;SDS011;64615;32.062;34.834;2023-08-20T14:17:25;8.98;;;5.20;;
75937;SDS011;64615;32.062;34.834;2023-08-20T14:19:50;9.80;;;5.70;;
75937;SDS011;64615;32.062;34.834;2023-08-20T14:22:16;8.95;;;5.65;;
75937;SDS011;64615;32.062;34.834;2023-08-20T14:24:43;8.43;;;5.35;;
75937;SDS011;64615;32.062;34.834;2023-08-20T14:27:08;8.13;;;5.38;;
75937;SDS011;64615;32.062;34.834;2023-08-20T14:29:35;9.90;;;5.47;;
75937;SDS011;64615;32.062;34.834;2023-08-20T14:32:01;10.05;;;5.45;;
75937;SDS011;64615;32.062;34.834;2023-08-20T14:34:27;8.43;;;5.72;;
75937;SDS011;64615;32.062;34.834;2023-08-20T14:36:52;7.93;;;5.05;;
75937;SDS011;64615;32.062;34.834;2023-08-20T14:39:18;9.93;;;5.43;;
75937;SDS011;64615;32.062;34.834;2023-08-20T14:41:43;15.43;;;6.22;;
75937;SDS011;64615;32.062;34.834;2023-08-20T14:44:09;14.07;;;5.70;;
75937;SDS011;64615;32.062;34.834;2023-08-20T14:46:34;11.20;;;6.68;;
75937;SDS011;64615;32.062;34.834;2023-08-20T14:49:00;10.55;;;6.10;;
75937;SDS011;64615;32.062;34.834;2023-08-20T14:51:26;13.88;;;6.32;;
75937;SDS011;64615;32.062;34.834;2023-08-20T14:53:51;14.32;;;6.78;;